sensor_id;sensor_type;location;lat;lon;timestamp;P1;durP1;ratioP1;P2;durP2;ratioP2
75148;SDS011;63724;47.470;19.166;2023-04-03T00:00:40;5.83;;;3.50;;
75148;SDS011;63724;47.470;19.166;2023-04-03T00:03:43;4.50;;;2.70;;
75148;SDS011;63724;47.470;19.166;2023-04-03T00:06:45;4.93;;;3.17;;
75148;SDS011;63724;47.470;19.166;2023-04-03T00:09:48;4.47;;;3.22;;
75148;SDS011;63724;47.470;19.166;2023-04-03T00:12:50;5.50;;;3.88;;
75148;SDS011;63724;47.470;19.166;2023-04-03T00:15:52;5.80;;;3.40;;
75148;SDS011;63724;47.470;19.166;2023-04-03T00:18:55;4.57;;;3.03;;
75148;SDS011;63724;47.470;19.166;2023-04-03T00:21:57;5.13;;;3.30;;
75148;SDS011;63724;47.470;19.166;2023-04-03T00:24:59;5.45;;;3.65;;
75148;SDS011;63724;47.470;19.166;2023-04-03T00:28:02;4.68;;;3.25;;
75148;SDS011;63724;47.470;19.166;2023-04-03T00:31:05;4.57;;;3.53;;
75148;SDS011;63724;47.470;19.166;2023-04-03T00:34:07;6.73;;;3.50;;
75148;SDS011;63724;47.470;19.166;2023-04-03T00:37:10;5.68;;;3.53;;
75148;SDS011;63724;47.470;19.166;2023-04-03T00:40:13;5.03;;;3.33;;
75148;SDS011;63724;47.470;19.166;2023-04-03T00:43:17;6.10;;;3.67;;
75148;SDS011;63724;47.470;19.166;2023-04-03T00:46:24;5.10;;;3.50;;
75148;SDS011;63724;47.470;19.166;2023-04-03T00:49:27;5.27;;;3.33;;
75148;SDS011;63724;47.470;19.166;2023-04-03T00:52:30;4.85;;;3.65;;
75148;SDS011;63724;47.470;19.166;2023-04-03T00:55:33;4.30;;;3.33;;
75148;SDS011;63724;47.470;19.166;2023-04-03T00:58:39;4.95;;;3.25;;
75148;SDS011;63724;47.470;19.166;2023-04-03T01:01:45;4.57;;;3.17;;
75148;SDS011;63724;47.470;19.166;2023-04-03T01:04:47;5.00;;;3.40;;
75148;SDS011;63724;47.470;19.166;2023-04-03T01:07:50;5.32;;;3.65;;
75148;SDS011;63724;47.470;19.166;2023-04-03T01:10:53;5.63;;;3.63;;
75148;SDS011;63724;47.470;19.166;2023-04-03T01:13:56;5.55;;;3.72;;
75148;SDS011;63724;47.470;19.166;2023-04-03T01:17:00;5.10;;;4.07;;
75148;SDS011;63724;47.470;19.166;2023-04-03T01:20:16;4.50;;;3.30;;
75148;SDS011;63724;47.470;19.166;2023-04-03T01:27:06;3.70;;;2.90;;
75148;SDS011;63724;47.470;19.166;2023-04-03T01:30:11;4.85;;;3.00;;
75148;SDS011;63724;47.470;19.166;2023-04-03T01:33:15;4.37;;;3.40;;
75148;SDS011;63724;47.470;19.166;2023-04-03T01:36:19;6.43;;;3.37;;
75148;SDS011;63724;47.470;19.166;2023-04-03T01:39:23;3.92;;;2.75;;
75148;SDS011;63724;47.470;19.166;2023-04-03T01:42:26;4.30;;;3.15;;
75148;SDS011;63724;47.470;19.166;2023-04-03T01:45:28;3.95;;;3.13;;
75148;SDS011;63724;47.470;19.166;2023-04-03T01:48:31;5.53;;;3.20;;
75148;SDS011;63724;47.470;19.166;2023-04-03T01:51:34;5.07;;;3.00;;
75148;SDS011;63724;47.470;19.166;2023-04-03T01:54:37;3.50;;;2.70;;
75148;SDS011;63724;47.470;19.166;2023-04-03T01:57:39;4.25;;;2.75;;
75148;SDS011;63724;47.470;19.166;2023-04-03T02:00:42;5.72;;;3.05;;
75148;SDS011;63724;47.470;19.166;2023-04-03T02:03:45;4.30;;;2.73;;
75148;SDS011;63724;47.470;19.166;2023-04-03T02:06:47;3.60;;;2.87;;
75148;SDS011;63724;47.470;19.166;2023-04-03T02:09:49;5.13;;;2.95;;
75148;SDS011;63724;47.470;19.166;2023-04-03T02:12:52;4.15;;;2.58;;
75148;SDS011;63724;47.470;19.166;2023-04-03T02:15:55;4.07;;;2.58;;
75148;SDS011;63724;47.470;19.166;2023-04-03T02:18:57;3.90;;;2.40;;
75148;SDS011;63724;47.470;19.166;2023-04-03T02:22:00;2.67;;;2.20;;
75148;SDS011;63724;47.470;19.166;2023-04-03T02:25:04;4.38;;;2.40;;
75148;SDS011;63724;47.470;19.166;2023-04-03T02:28:06;3.58;;;1.90;;
75148;SDS011;63724;47.470;19.166;2023-04-03T02:31:09;4.60;;;2.60;;
75148;SDS011;63724;47.470;19.166;2023-04-03T02:34:14;3.73;;;2.50;;
75148;SDS011;63724;47.470;19.166;2023-04-03T02:37:17;4.73;;;2.50;;
75148;SDS011;63724;47.470;19.166;2023-04-03T02:40:21;3.33;;;2.10;;
75148;SDS011;63724;47.470;19.166;2023-04-03T02:43:24;2.58;;;2.00;;
75148;SDS011;63724;47.470;19.166;2023-04-03T02:46:28;3.35;;;2.10;;
75148;SDS011;63724;47.470;19.166;2023-04-03T02:49:31;4.80;;;2.30;;
75148;SDS011;63724;47.470;19.166;2023-04-03T02:52:33;3.50;;;2.30;;
75148;SDS011;63724;47.470;19.166;2023-04-03T02:55:36;3.55;;;2.38;;
75148;SDS011;63724;47.470;19.166;2023-04-03T02:58:38;2.88;;;2.10;;
75148;SDS011;63724;47.470;19.166;2023-04-03T03:01:42;3.40;;;2.20;;
75148;SDS011;63724;47.470;19.166;2023-04-03T03:04:45;4.20;;;2.60;;
75148;SDS011;63724;47.470;19.166;2023-04-03T03:07:47;4.40;;;2.30;;
75148;SDS011;63724;47.470;19.166;2023-04-03T03:10:49;3.58;;;2.67;;
75148;SDS011;63724;47.470;19.166;2023-04-03T03:13:53;3.70;;;2.38;;
75148;SDS011;63724;47.470;19.166;2023-04-03T03:16:55;5.63;;;2.30;;
75148;SDS011;63724;47.470;19.166;2023-04-03T03:19:57;3.13;;;2.23;;
75148;SDS011;63724;47.470;19.166;2023-04-03T03:23:01;3.53;;;2.43;;
75148;SDS011;63724;47.470;19.166;2023-04-03T03:26:04;3.53;;;2.10;;
75148;SDS011;63724;47.470;19.166;2023-04-03T03:29:09;2.05;;;1.77;;
75148;SDS011;63724;47.470;19.166;2023-04-03T03:32:12;8.63;;;4.13;;
75148;SDS011;63724;47.470;19.166;2023-04-03T03:35:14;5.23;;;2.80;;
75148;SDS011;63724;47.470;19.166;2023-04-03T03:38:16;2.93;;;2.00;;
75148;SDS011;63724;47.470;19.166;2023-04-03T03:41:19;5.88;;;2.80;;
75148;SDS011;63724;47.470;19.166;2023-04-03T03:44:21;2.95;;;2.00;;
75148;SDS011;63724;47.470;19.166;2023-04-03T03:47:24;3.15;;;2.22;;
75148;SDS011;63724;47.470;19.166;2023-04-03T03:50:27;3.87;;;2.33;;
75148;SDS011;63724;47.470;19.166;2023-04-03T03:53:30;3.93;;;2.90;;
75148;SDS011;63724;47.470;19.166;2023-04-03T03:56:37;4.35;;;2.38;;
75148;SDS011;63724;47.470;19.166;2023-04-03T03:59:40;3.60;;;2.22;;
75148;SDS011;63724;47.470;19.166;2023-04-03T04:02:43;3.90;;;2.60;;
75148;SDS011;63724;47.470;19.166;2023-04-03T04:05:50;3.33;;;2.30;;
75148;SDS011;63724;47.470;19.166;2023-04-03T04:08:53;5.20;;;2.50;;
75148;SDS011;63724;47.470;19.166;2023-04-03T04:11:55;2.22;;;1.90;;
75148;SDS011;63724;47.470;19.166;2023-04-03T04:14:58;4.57;;;2.30;;
75148;SDS011;63724;47.470;19.166;2023-04-03T04:18:02;4.15;;;2.47;;
75148;SDS011;63724;47.470;19.166;2023-04-03T04:21:06;3.03;;;2.30;;
75148;SDS011;63724;47.470;19.166;2023-04-03T04:24:08;3.43;;;2.57;;
75148;SDS011;63724;47.470;19.166;2023-04-03T04:27:12;3.95;;;2.60;;
75148;SDS011;63724;47.470;19.166;2023-04-03T04:30:15;3.75;;;2.65;;
75148;SDS011;63724;47.470;19.166;2023-04-03T04:33:20;4.95;;;2.80;;
75148;SDS011;63724;47.470;19.166;2023-04-03T04:36:22;4.33;;;2.70;;
75148;SDS011;63724;47.470;19.166;2023-04-03T04:39:26;4.70;;;2.87;;
75148;SDS011;63724;47.470;19.166;2023-04-03T04:42:31;4.00;;;2.72;;
75148;SDS011;63724;47.470;19.166;2023-04-03T04:45:33;4.32;;;2.97;;
75148;SDS011;63724;47.470;19.166;2023-04-03T04:48:37;5.57;;;2.35;;
75148;SDS011;63724;47.470;19.166;2023-04-03T04:51:41;4.27;;;2.80;;
75148;SDS011;63724;47.470;19.166;2023-04-03T04:54:57;3.73;;;2.93;;
75148;SDS011;63724;47.470;19.166;2023-04-03T04:57:59;4.10;;;2.70;;
75148;SDS011;63724;47.470;19.166;2023-04-03T05:01:03;8.02;;;2.70;;
75148;SDS011;63724;47.470;19.166;2023-04-03T05:04:16;3.55;;;2.60;;
75148;SDS011;63724;47.470;19.166;2023-04-03T05:07:22;5.40;;;2.70;;
75148;SDS011;63724;47.470;19.166;2023-04-03T05:10:25;5.40;;;2.87;;
75148;SDS011;63724;47.470;19.166;2023-04-03T05:13:28;6.65;;;3.10;;
75148;SDS011;63724;47.470;19.166;2023-04-03T05:16:31;5.90;;;3.15;;
75148;SDS011;63724;47.470;19.166;2023-04-03T05:19:34;5.13;;;3.20;;
75148;SDS011;63724;47.470;19.166;2023-04-03T05:22:38;3.97;;;2.60;;
75148;SDS011;63724;47.470;19.166;2023-04-03T05:25:44;5.37;;;2.53;;
75148;SDS011;63724;47.470;19.166;2023-04-03T05:28:49;6.00;;;2.83;;
75148;SDS011;63724;47.470;19.166;2023-04-03T05:32:01;6.95;;;3.72;;
75148;SDS011;63724;47.470;19.166;2023-04-03T05:35:14;5.93;;;3.20;;
75148;SDS011;63724;47.470;19.166;2023-04-03T05:38:18;4.83;;;3.03;;
75148;SDS011;63724;47.470;19.166;2023-04-03T05:41:22;4.27;;;2.93;;
75148;SDS011;63724;47.470;19.166;2023-04-03T05:44:27;7.15;;;3.00;;
75148;SDS011;63724;47.470;19.166;2023-04-03T05:47:29;5.93;;;3.33;;
75148;SDS011;63724;47.470;19.166;2023-04-03T05:50:33;7.72;;;3.00;;
75148;SDS011;63724;47.470;19.166;2023-04-03T05:53:36;6.73;;;3.33;;
75148;SDS011;63724;47.470;19.166;2023-04-03T05:56:40;6.30;;;2.90;;
75148;SDS011;63724;47.470;19.166;2023-04-03T05:59:44;5.30;;;3.55;;
75148;SDS011;63724;47.470;19.166;2023-04-03T06:02:48;4.68;;;3.42;;
75148;SDS011;63724;47.470;19.166;2023-04-03T06:05:55;4.50;;;3.20;;
75148;SDS011;63724;47.470;19.166;2023-04-03T06:08:59;11.87;;;6.47;;
75148;SDS011;63724;47.470;19.166;2023-04-03T06:12:04;4.13;;;2.90;;
75148;SDS011;63724;47.470;19.166;2023-04-03T06:15:07;8.80;;;2.90;;
75148;SDS011;63724;47.470;19.166;2023-04-03T06:18:11;5.25;;;2.85;;
75148;SDS011;63724;47.470;19.166;2023-04-03T06:21:15;5.85;;;3.17;;
75148;SDS011;63724;47.470;19.166;2023-04-03T06:24:17;5.80;;;3.60;;
75148;SDS011;63724;47.470;19.166;2023-04-03T06:27:20;3.73;;;2.77;;
75148;SDS011;63724;47.470;19.166;2023-04-03T06:30:22;4.90;;;2.92;;
75148;SDS011;63724;47.470;19.166;2023-04-03T06:33:25;4.22;;;3.08;;
75148;SDS011;63724;47.470;19.166;2023-04-03T06:36:28;5.82;;;3.05;;
75148;SDS011;63724;47.470;19.166;2023-04-03T06:39:30;4.63;;;3.07;;
75148;SDS011;63724;47.470;19.166;2023-04-03T06:42:34;4.77;;;2.97;;
75148;SDS011;63724;47.470;19.166;2023-04-03T06:45:45;6.00;;;3.13;;
75148;SDS011;63724;47.470;19.166;2023-04-03T06:48:57;4.40;;;3.20;;
75148;SDS011;63724;47.470;19.166;2023-04-03T06:52:37;5.13;;;3.00;;
75148;SDS011;63724;47.470;19.166;2023-04-03T06:55:40;4.83;;;2.40;;
75148;SDS011;63724;47.470;19.166;2023-04-03T06:58:43;4.73;;;2.70;;
75148;SDS011;63724;47.470;19.166;2023-04-03T07:01:47;4.57;;;2.28;;
75148;SDS011;63724;47.470;19.166;2023-04-03T07:04:49;5.88;;;2.20;;
75148;SDS011;63724;47.470;19.166;2023-04-03T07:07:52;5.10;;;2.25;;
75148;SDS011;63724;47.470;19.166;2023-04-03T07:10:56;4.50;;;1.93;;
75148;SDS011;63724;47.470;19.166;2023-04-03T07:13:58;3.57;;;2.10;;
75148;SDS011;63724;47.470;19.166;2023-04-03T07:17:01;5.95;;;2.25;;
75148;SDS011;63724;47.470;19.166;2023-04-03T07:20:04;5.70;;;1.90;;
75148;SDS011;63724;47.470;19.166;2023-04-03T07:23:06;3.17;;;1.55;;
75148;SDS011;63724;47.470;19.166;2023-04-03T07:26:09;2.57;;;1.60;;
75148;SDS011;63724;47.470;19.166;2023-04-03T07:29:11;6.80;;;2.20;;
75148;SDS011;63724;47.470;19.166;2023-04-03T07:32:14;2.90;;;1.77;;
75148;SDS011;63724;47.470;19.166;2023-04-03T07:35:17;2.38;;;1.80;;
75148;SDS011;63724;47.470;19.166;2023-04-03T07:38:19;3.05;;;1.90;;
75148;SDS011;63724;47.470;19.166;2023-04-03T07:41:53;1.93;;;1.37;;
75148;SDS011;63724;47.470;19.166;2023-04-03T07:44:58;1.50;;;1.30;;
75148;SDS011;63724;47.470;19.166;2023-04-03T07:48:02;3.80;;;1.60;;
75148;SDS011;63724;47.470;19.166;2023-04-03T07:51:21;3.80;;;1.60;;
75148;SDS011;63724;47.470;19.166;2023-04-03T07:54:23;3.22;;;1.75;;
75148;SDS011;63724;47.470;19.166;2023-04-03T08:01:11;4.10;;;1.60;;
75148;SDS011;63724;47.470;19.166;2023-04-03T08:04:14;1.95;;;1.23;;
75148;SDS011;63724;47.470;19.166;2023-04-03T08:07:16;2.70;;;1.38;;
75148;SDS011;63724;47.470;19.166;2023-04-03T08:10:19;2.97;;;1.40;;
75148;SDS011;63724;47.470;19.166;2023-04-03T08:13:21;2.80;;;1.30;;
75148;SDS011;63724;47.470;19.166;2023-04-03T08:16:24;4.17;;;1.90;;
75148;SDS011;63724;47.470;19.166;2023-04-03T08:19:30;2.90;;;1.40;;
75148;SDS011;63724;47.470;19.166;2023-04-03T08:22:33;2.00;;;1.20;;
75148;SDS011;63724;47.470;19.166;2023-04-03T08:25:42;3.05;;;1.80;;
75148;SDS011;63724;47.470;19.166;2023-04-03T08:28:44;1.50;;;1.20;;
75148;SDS011;63724;47.470;19.166;2023-04-03T08:31:46;1.60;;;1.03;;
75148;SDS011;63724;47.470;19.166;2023-04-03T08:34:49;2.30;;;1.65;;
75148;SDS011;63724;47.470;19.166;2023-04-03T08:37:51;2.72;;;1.70;;
75148;SDS011;63724;47.470;19.166;2023-04-03T08:41:11;2.50;;;1.52;;
75148;SDS011;63724;47.470;19.166;2023-04-03T08:51:15;2.97;;;1.80;;
75148;SDS011;63724;47.470;19.166;2023-04-03T08:54:24;1.73;;;1.35;;
75148;SDS011;63724;47.470;19.166;2023-04-03T08:57:35;3.35;;;1.55;;
75148;SDS011;63724;47.470;19.166;2023-04-03T09:03:50;2.40;;;1.77;;
75148;SDS011;63724;47.470;19.166;2023-04-03T09:06:54;1.95;;;1.25;;
75148;SDS011;63724;47.470;19.166;2023-04-03T09:10:01;3.22;;;2.05;;
75148;SDS011;63724;47.470;19.166;2023-04-03T09:13:06;2.63;;;1.35;;
75148;SDS011;63724;47.470;19.166;2023-04-03T09:22:53;3.75;;;1.52;;
75148;SDS011;63724;47.470;19.166;2023-04-03T09:26:06;2.58;;;1.58;;
75148;SDS011;63724;47.470;19.166;2023-04-03T09:29:19;2.63;;;1.60;;
75148;SDS011;63724;47.470;19.166;2023-04-03T09:32:28;1.87;;;1.40;;
75148;SDS011;63724;47.470;19.166;2023-04-03T09:35:33;1.53;;;1.30;;
75148;SDS011;63724;47.470;19.166;2023-04-03T09:39:02;1.90;;;1.27;;
75148;SDS011;63724;47.470;19.166;2023-04-03T09:42:42;2.22;;;1.35;;
75148;SDS011;63724;47.470;19.166;2023-04-03T09:45:38;2.15;;;1.48;;
75148;SDS011;63724;47.470;19.166;2023-04-03T09:48:40;1.60;;;1.30;;
75148;SDS011;63724;47.470;19.166;2023-04-03T09:52:18;2.10;;;1.70;;
75148;SDS011;63724;47.470;19.166;2023-04-03T09:55:23;2.42;;;1.23;;
75148;SDS011;63724;47.470;19.166;2023-04-03T10:02:04;3.28;;;1.42;;
75148;SDS011;63724;47.470;19.166;2023-04-03T10:05:37;4.50;;;1.83;;
75148;SDS011;63724;47.470;19.166;2023-04-03T10:08:41;2.80;;;1.40;;
75148;SDS011;63724;47.470;19.166;2023-04-03T10:15:13;4.80;;;2.05;;
75148;SDS011;63724;47.470;19.166;2023-04-03T10:31:28;1.70;;;1.30;;
75148;SDS011;63724;47.470;19.166;2023-04-03T10:35:25;2.38;;;1.40;;
75148;SDS011;63724;47.470;19.166;2023-04-03T10:55:57;2.10;;;0.80;;
75148;SDS011;63724;47.470;19.166;2023-04-03T11:02:52;1.00;;;0.70;;
75148;SDS011;63724;47.470;19.166;2023-04-03T11:05:57;0.90;;;0.70;;
75148;SDS011;63724;47.470;19.166;2023-04-03T11:09:04;1.20;;;0.80;;
75148;SDS011;63724;47.470;19.166;2023-04-03T11:15:37;1.47;;;0.97;;
75148;SDS011;63724;47.470;19.166;2023-04-03T11:18:50;1.30;;;0.75;;
75148;SDS011;63724;47.470;19.166;2023-04-03T11:25:25;1.58;;;1.00;;
75148;SDS011;63724;47.470;19.166;2023-04-03T11:28:28;1.57;;;0.97;;
75148;SDS011;63724;47.470;19.166;2023-04-03T11:31:38;1.47;;;0.87;;
75148;SDS011;63724;47.470;19.166;2023-04-03T11:34:51;4.32;;;0.80;;
75148;SDS011;63724;47.470;19.166;2023-04-03T11:37:58;1.00;;;0.90;;
75148;SDS011;63724;47.470;19.166;2023-04-03T11:41:03;1.20;;;0.50;;
75148;SDS011;63724;47.470;19.166;2023-04-03T11:44:25;5.20;;;0.60;;
75148;SDS011;63724;47.470;19.166;2023-04-03T11:47:47;3.80;;;0.50;;
75148;SDS011;63724;47.470;19.166;2023-04-03T11:50:51;6.05;;;0.52;;
75148;SDS011;63724;47.470;19.166;2023-04-03T11:53:54;1.52;;;0.68;;
75148;SDS011;63724;47.470;19.166;2023-04-03T12:08:27;2.83;;;0.82;;
75148;SDS011;63724;47.470;19.166;2023-04-03T12:11:40;2.20;;;0.90;;
75148;SDS011;63724;47.470;19.166;2023-04-03T12:14:48;5.57;;;1.50;;
75148;SDS011;63724;47.470;19.166;2023-04-03T12:17:51;5.70;;;1.20;;
75148;SDS011;63724;47.470;19.166;2023-04-03T12:20:55;1.57;;;1.07;;
75148;SDS011;63724;47.470;19.166;2023-04-03T12:30:30;0.77;;;0.73;;
75148;SDS011;63724;47.470;19.166;2023-04-03T12:33:38;1.17;;;0.77;;
75148;SDS011;63724;47.470;19.166;2023-04-03T12:42:00;3.10;;;1.30;;
75148;SDS011;63724;47.470;19.166;2023-04-03T12:45:23;3.85;;;1.40;;
75148;SDS011;63724;47.470;19.166;2023-04-03T12:48:27;11.77;;;2.30;;
75148;SDS011;63724;47.470;19.166;2023-04-03T12:51:34;1.73;;;1.00;;
75148;SDS011;63724;47.470;19.166;2023-04-03T12:54:39;1.40;;;0.93;;
75148;SDS011;63724;47.470;19.166;2023-04-03T12:57:42;0.80;;;0.80;;
75148;SDS011;63724;47.470;19.166;2023-04-03T13:00:45;1.20;;;0.90;;
75148;SDS011;63724;47.470;19.166;2023-04-03T13:03:48;1.35;;;0.70;;
75148;SDS011;63724;47.470;19.166;2023-04-03T13:06:52;0.90;;;0.77;;
75148;SDS011;63724;47.470;19.166;2023-04-03T13:09:56;4.87;;;1.10;;
75148;SDS011;63724;47.470;19.166;2023-04-03T13:13:07;2.40;;;0.88;;
75148;SDS011;63724;47.470;19.166;2023-04-03T13:16:10;3.20;;;0.90;;
75148;SDS011;63724;47.470;19.166;2023-04-03T13:19:17;1.85;;;0.90;;
75148;SDS011;63724;47.470;19.166;2023-04-03T13:25:33;1.40;;;0.90;;
75148;SDS011;63724;47.470;19.166;2023-04-03T13:28:38;2.20;;;1.00;;
75148;SDS011;63724;47.470;19.166;2023-04-03T13:31:42;2.03;;;0.80;;
75148;SDS011;63724;47.470;19.166;2023-04-03T13:34:44;1.40;;;0.77;;
75148;SDS011;63724;47.470;19.166;2023-04-03T13:37:55;2.03;;;1.10;;
75148;SDS011;63724;47.470;19.166;2023-04-03T13:41:45;1.20;;;0.70;;
75148;SDS011;63724;47.470;19.166;2023-04-03T13:45:07;3.05;;;1.10;;
75148;SDS011;63724;47.470;19.166;2023-04-03T13:48:34;1.00;;;0.52;;
75148;SDS011;63724;47.470;19.166;2023-04-03T13:51:38;2.53;;;0.70;;
75148;SDS011;63724;47.470;19.166;2023-04-03T13:54:41;1.30;;;0.60;;
75148;SDS011;63724;47.470;19.166;2023-04-03T13:57:58;2.37;;;0.70;;
75148;SDS011;63724;47.470;19.166;2023-04-03T14:01:20;5.22;;;1.25;;
75148;SDS011;63724;47.470;19.166;2023-04-03T14:04:25;11.23;;;0.80;;
75148;SDS011;63724;47.470;19.166;2023-04-03T14:07:30;16.92;;;1.00;;
75148;SDS011;63724;47.470;19.166;2023-04-03T14:10:35;5.83;;;1.20;;
75148;SDS011;63724;47.470;19.166;2023-04-03T14:13:41;10.00;;;0.90;;
75148;SDS011;63724;47.470;19.166;2023-04-03T14:16:46;2.28;;;0.60;;
75148;SDS011;63724;47.470;19.166;2023-04-03T14:19:51;2.75;;;1.00;;
75148;SDS011;63724;47.470;19.166;2023-04-03T14:22:54;5.60;;;0.82;;
75148;SDS011;63724;47.470;19.166;2023-04-03T14:25:57;1.60;;;0.53;;
75148;SDS011;63724;47.470;19.166;2023-04-03T14:29:00;2.63;;;0.77;;
75148;SDS011;63724;47.470;19.166;2023-04-03T14:32:03;2.30;;;0.60;;
75148;SDS011;63724;47.470;19.166;2023-04-03T14:35:15;2.00;;;0.50;;
75148;SDS011;63724;47.470;19.166;2023-04-03T14:38:29;3.08;;;0.57;;
75148;SDS011;63724;47.470;19.166;2023-04-03T14:41:32;0.63;;;0.63;;
75148;SDS011;63724;47.470;19.166;2023-04-03T14:44:35;2.70;;;0.70;;
75148;SDS011;63724;47.470;19.166;2023-04-03T14:47:55;2.00;;;0.73;;
75148;SDS011;63724;47.470;19.166;2023-04-03T14:51:13;1.15;;;0.50;;
75148;SDS011;63724;47.470;19.166;2023-04-03T14:54:20;7.57;;;4.05;;
75148;SDS011;63724;47.470;19.166;2023-04-03T14:57:28;3.27;;;2.00;;
75148;SDS011;63724;47.470;19.166;2023-04-03T15:00:32;4.43;;;2.77;;
75148;SDS011;63724;47.470;19.166;2023-04-03T15:03:34;2.42;;;1.27;;
75148;SDS011;63724;47.470;19.166;2023-04-03T15:06:37;2.78;;;1.02;;
75148;SDS011;63724;47.470;19.166;2023-04-03T15:09:40;8.50;;;1.45;;
75148;SDS011;63724;47.470;19.166;2023-04-03T15:12:42;3.60;;;0.73;;
75148;SDS011;63724;47.470;19.166;2023-04-03T15:15:46;6.23;;;1.20;;
75148;SDS011;63724;47.470;19.166;2023-04-03T15:18:49;5.72;;;1.73;;
75148;SDS011;63724;47.470;19.166;2023-04-03T15:21:51;6.18;;;0.95;;
75148;SDS011;63724;47.470;19.166;2023-04-03T15:24:54;1.00;;;0.50;;
75148;SDS011;63724;47.470;19.166;2023-04-03T15:27:56;1.17;;;0.50;;
75148;SDS011;63724;47.470;19.166;2023-04-03T15:30:59;0.87;;;0.53;;
75148;SDS011;63724;47.470;19.166;2023-04-03T15:34:02;1.38;;;0.73;;
75148;SDS011;63724;47.470;19.166;2023-04-03T15:37:05;0.90;;;0.52;;
75148;SDS011;63724;47.470;19.166;2023-04-03T15:40:07;2.30;;;0.50;;
75148;SDS011;63724;47.470;19.166;2023-04-03T15:43:10;1.27;;;0.63;;
75148;SDS011;63724;47.470;19.166;2023-04-03T15:46:13;1.17;;;0.50;;
75148;SDS011;63724;47.470;19.166;2023-04-03T15:49:15;0.77;;;0.40;;
75148;SDS011;63724;47.470;19.166;2023-04-03T15:52:18;0.80;;;0.50;;
75148;SDS011;63724;47.470;19.166;2023-04-03T15:55:24;3.63;;;1.23;;
75148;SDS011;63724;47.470;19.166;2023-04-03T15:58:27;0.70;;;0.40;;
75148;SDS011;63724;47.470;19.166;2023-04-03T16:01:30;0.60;;;0.23;;
75148;SDS011;63724;47.470;19.166;2023-04-03T16:04:33;1.10;;;0.38;;
75148;SDS011;63724;47.470;19.166;2023-04-03T16:07:37;1.33;;;0.80;;
75148;SDS011;63724;47.470;19.166;2023-04-03T16:10:40;0.98;;;0.50;;
75148;SDS011;63724;47.470;19.166;2023-04-03T16:13:42;2.40;;;0.47;;
75148;SDS011;63724;47.470;19.166;2023-04-03T16:16:45;2.00;;;0.70;;
75148;SDS011;63724;47.470;19.166;2023-04-03T16:19:47;0.80;;;0.70;;
75148;SDS011;63724;47.470;19.166;2023-04-03T16:22:50;1.02;;;0.93;;
75148;SDS011;63724;47.470;19.166;2023-04-03T16:25:52;1.67;;;1.27;;
75148;SDS011;63724;47.470;19.166;2023-04-03T16:28:54;1.80;;;0.83;;
75148;SDS011;63724;47.470;19.166;2023-04-03T16:31:57;1.33;;;0.70;;
75148;SDS011;63724;47.470;19.166;2023-04-03T16:35:00;1.63;;;0.70;;
75148;SDS011;63724;47.470;19.166;2023-04-03T16:38:07;1.65;;;0.90;;
75148;SDS011;63724;47.470;19.166;2023-04-03T16:41:09;1.63;;;0.90;;
75148;SDS011;63724;47.470;19.166;2023-04-03T16:44:12;1.90;;;0.83;;
75148;SDS011;63724;47.470;19.166;2023-04-03T16:47:15;2.30;;;1.10;;
75148;SDS011;63724;47.470;19.166;2023-04-03T16:50:20;2.53;;;0.90;;
75148;SDS011;63724;47.470;19.166;2023-04-03T16:53:23;4.00;;;1.42;;
75148;SDS011;63724;47.470;19.166;2023-04-03T16:56:26;1.73;;;1.00;;
75148;SDS011;63724;47.470;19.166;2023-04-03T16:59:29;7.63;;;3.17;;
75148;SDS011;63724;47.470;19.166;2023-04-03T17:02:31;4.17;;;2.10;;
75148;SDS011;63724;47.470;19.166;2023-04-03T17:05:34;3.20;;;1.33;;
75148;SDS011;63724;47.470;19.166;2023-04-03T17:08:36;1.92;;;0.80;;
75148;SDS011;63724;47.470;19.166;2023-04-03T17:11:39;1.83;;;1.08;;
75148;SDS011;63724;47.470;19.166;2023-04-03T17:14:41;2.57;;;1.10;;
75148;SDS011;63724;47.470;19.166;2023-04-03T17:17:44;1.53;;;1.00;;
75148;SDS011;63724;47.470;19.166;2023-04-03T17:20:46;3.65;;;1.10;;
75148;SDS011;63724;47.470;19.166;2023-04-03T17:23:49;2.33;;;1.20;;
75148;SDS011;63724;47.470;19.166;2023-04-03T17:26:54;2.25;;;1.20;;
75148;SDS011;63724;47.470;19.166;2023-04-03T17:29:56;1.77;;;1.10;;
75148;SDS011;63724;47.470;19.166;2023-04-03T17:32:59;1.60;;;1.13;;
75148;SDS011;63724;47.470;19.166;2023-04-03T17:36:02;2.03;;;1.17;;
75148;SDS011;63724;47.470;19.166;2023-04-03T17:39:05;3.85;;;1.75;;
75148;SDS011;63724;47.470;19.166;2023-04-03T17:42:08;4.97;;;1.70;;
75148;SDS011;63724;47.470;19.166;2023-04-03T17:45:10;3.13;;;1.53;;
75148;SDS011;63724;47.470;19.166;2023-04-03T17:48:13;3.20;;;1.53;;
75148;SDS011;63724;47.470;19.166;2023-04-03T17:51:16;3.60;;;1.50;;
75148;SDS011;63724;47.470;19.166;2023-04-03T17:54:21;5.47;;;1.65;;
75148;SDS011;63724;47.470;19.166;2023-04-03T17:57:24;4.10;;;1.52;;
75148;SDS011;63724;47.470;19.166;2023-04-03T18:00:26;8.73;;;1.30;;
75148;SDS011;63724;47.470;19.166;2023-04-03T18:03:28;3.80;;;1.80;;
75148;SDS011;63724;47.470;19.166;2023-04-03T18:06:32;3.10;;;1.75;;
75148;SDS011;63724;47.470;19.166;2023-04-03T18:09:39;3.00;;;1.48;;
75148;SDS011;63724;47.470;19.166;2023-04-03T18:12:42;2.83;;;1.45;;
75148;SDS011;63724;47.470;19.166;2023-04-03T18:15:44;4.47;;;1.60;;
75148;SDS011;63724;47.470;19.166;2023-04-03T18:18:47;3.33;;;1.20;;
75148;SDS011;63724;47.470;19.166;2023-04-03T18:21:55;3.42;;;1.77;;
75148;SDS011;63724;47.470;19.166;2023-04-03T18:24:59;3.83;;;1.25;;
75148;SDS011;63724;47.470;19.166;2023-04-03T18:28:01;3.85;;;1.13;;
75148;SDS011;63724;47.470;19.166;2023-04-03T18:31:07;6.83;;;1.40;;
75148;SDS011;63724;47.470;19.166;2023-04-03T18:34:16;1.50;;;0.90;;
75148;SDS011;63724;47.470;19.166;2023-04-03T18:37:18;2.08;;;1.00;;
75148;SDS011;63724;47.470;19.166;2023-04-03T18:40:22;2.13;;;1.10;;
75148;SDS011;63724;47.470;19.166;2023-04-03T18:43:27;1.35;;;1.00;;
75148;SDS011;63724;47.470;19.166;2023-04-03T18:46:30;1.43;;;1.30;;
75148;SDS011;63724;47.470;19.166;2023-04-03T18:49:34;2.93;;;1.30;;
75148;SDS011;63724;47.470;19.166;2023-04-03T18:52:37;2.75;;;1.20;;
75148;SDS011;63724;47.470;19.166;2023-04-03T18:55:39;2.17;;;1.02;;
75148;SDS011;63724;47.470;19.166;2023-04-03T18:58:42;2.83;;;1.05;;
75148;SDS011;63724;47.470;19.166;2023-04-03T19:01:44;2.37;;;1.13;;
75148;SDS011;63724;47.470;19.166;2023-04-03T19:04:47;3.23;;;1.20;;
75148;SDS011;63724;47.470;19.166;2023-04-03T19:07:49;1.77;;;1.00;;
75148;SDS011;63724;47.470;19.166;2023-04-03T19:10:52;3.38;;;1.23;;
75148;SDS011;63724;47.470;19.166;2023-04-03T19:13:54;2.10;;;1.10;;
75148;SDS011;63724;47.470;19.166;2023-04-03T19:17:15;3.90;;;1.13;;
75148;SDS011;63724;47.470;19.166;2023-04-03T19:20:17;2.77;;;1.03;;
75148;SDS011;63724;47.470;19.166;2023-04-03T19:23:19;2.78;;;1.40;;
75148;SDS011;63724;47.470;19.166;2023-04-03T19:26:22;1.88;;;1.33;;
75148;SDS011;63724;47.470;19.166;2023-04-03T19:29:24;2.58;;;1.10;;
75148;SDS011;63724;47.470;19.166;2023-04-03T19:32:26;1.63;;;1.00;;
75148;SDS011;63724;47.470;19.166;2023-04-03T19:35:29;2.33;;;1.10;;
75148;SDS011;63724;47.470;19.166;2023-04-03T19:38:31;2.05;;;1.40;;
75148;SDS011;63724;47.470;19.166;2023-04-03T19:41:34;2.85;;;1.58;;
75148;SDS011;63724;47.470;19.166;2023-04-03T19:44:37;2.55;;;1.25;;
75148;SDS011;63724;47.470;19.166;2023-04-03T19:47:40;2.43;;;1.33;;
75148;SDS011;63724;47.470;19.166;2023-04-03T19:50:42;4.63;;;1.67;;
75148;SDS011;63724;47.470;19.166;2023-04-03T19:53:44;2.88;;;1.20;;
75148;SDS011;63724;47.470;19.166;2023-04-03T19:56:48;2.55;;;1.30;;